Mile Point, Vermont
Current Conditions -  °F | °C
As of 6:55 AM on Saturday 01 Nov 2014 (Local Time) from K6B0 Reporting Station
Overcast Overcast  
Wind Chill: 30°   Ceiling: 6000
Heat Index: 37°   Visibility: 10mi
Dew Point: 30°   Wind: 8mph
Humidity: 78%   Direction: 360°N
Pressure: 30"   Gusts: NA
Location:  44.0804°N, 73.3324°W
Report Text: K6B0 011055Z AUTO 36007KT 10SM OVC060 03/M01 A3000 RMK AO2 T00251010
Loading
Personal Weather Stations






























Interactive Weather Map
Tropical Storm Tracking
New forecast layout! Learn more

10-Day Weather Forecast

Advertisements
Track Severe Weather on mobile